Terminal Aerodrome Forecast
Issued by NWS Upton, NY

Home | Current Version | Previous Version | Text Only | Print | Product List | Glossary On
Versions: 1 2 3 4 5 6 7 8 9 10 11 12 13 14 15 16 17 18 19 20 21 22 23 24 25 26 27 28 29 30
000
FTUS41 KOKX 221126
TAFBDR
TAF
KBDR 221126Z 2212/2312 01010G20KT P6SM SCT120 OVC250
     FM221400 35015G21KT P6SM SCT040 BKN080
     FM230200 36010KT P6SM SCT050 BKN080
     FM231000 34010KT P6SM SCT250=

USA.gov is the U.S. government's official web portal to all federal, state and local government web resources and services.